McGhee Tyson Airport Knoxville US
ICAO: KTYS
IATA: TYS
Category: Large
Scheduled Services: Yes

Elevation: 981 ft
TransAlt. 18000 ft.

Airport Communications:
KNOXVILLE APP/DEP:36.08
KNOXVILLE APP/DEP:118
ATIS:128.35
CLNC DEL:121.65
KNOXVILLE GND:121.9
ARNG OPS:41.5
PTD:30.3
NASHVILLE RDO:122.2
KNOXVILLE TWR:121.2
UNICOM:122.95

KTYS Zoom In..

Runways:

(A) RW 05L length 9005 ft width 150 ft
ILS 110.30 / hdg 48

(B) RW 05R length 9000 ft width 150 ft
---- / hdg 48

(C) RW 23L length 9000 ft width 150 ft
---- / hdg 228

(D) RW 23R length 9005 ft width 150 ft
ILS 111.70 / hdg 228

Location; KTYS
Day. 26 / Time. 03.53 Zulu
* Altimeter: 29.95
* Temperature: 23° c. 73.4°f.
* Wind from: KTY° Speed S kn.
Dewpoint: 19° c.
Visibility: 10 Statute Miles.
Clouds: Few 6000 ft.
Clouds: Scattered 25000 ft.

KTYS 260353Z 22007KT 10SM FEW060 SCT250 23/19 A2995 RMK AO2 RAB24E35 SLP128 P0000 T02330194


Wind From KTY°
Speed S kn.

 
 
jpsmedia.com for Web Design SOUNDCLOUD worldairports.se 2018   terms of use